Time;durP1;ratioP1;P1;durP2;ratioP2;P2;SDS_P1;SDS_P2;PMS_P1;PMS_P2;Temp;Humidity;BMP_temperature;BMP_pressure;BME280_temperature;BME280_humidity;BME280_pressure;Samples;Min_cycle;Max_cycle;Signal;HPM_P1;HPM_P2
2022/08/01 00:01:35;;;;;;;1.33;1.33;;;;;;;25.83;39.91;100372.00;5011278;28;20825;-72
2022/08/01 00:04:03;;;;;;;1.50;1.40;;;;;;;25.86;39.87;100373.25;5011367;28;20768;-72
2022/08/01 00:06:28;;;;;;;1.60;1.35;;;;;;;25.86;39.79;100360.19;5011330;28;20397;-72
2022/08/01 00:08:53;;;;;;;2.50;1.10;;;;;;;25.83;39.85;100372.00;5009618;28;20403;-72
2022/08/01 00:11:19;;;;;;;1.50;1.40;;;;;;;25.77;39.88;100370.63;5011325;28;20515;-72
2022/08/01 00:13:44;;;;;;;1.77;1.40;;;;;;;25.71;40.24;100361.72;5011325;28;20388;-72
2022/08/01 00:16:09;;;;;;;2.67;1.20;;;;;;;25.67;40.39;100369.13;5014097;28;20454;-72
2022/08/01 00:18:35;;;;;;;2.50;1.50;;;;;;;25.58;40.57;100373.19;5014998;28;20749;-72
2022/08/01 00:21:02;;;;;;;2.80;1.60;;;;;;;25.49;41.15;100380.78;5015034;28;20420;-72
2022/08/01 00:23:27;;;;;;;1.35;1.25;;;;;;;25.45;41.01;100375.09;5015029;28;20404;-72
2022/08/01 00:25:52;;;;;;;1.33;1.27;;;;;;;25.46;41.26;100379.47;5015069;28;20744;-73
2022/08/01 00:28:18;;;;;;;1.77;1.67;;;;;;;25.43;41.31;100380.19;5012836;28;20419;-73
2022/08/01 00:30:43;;;;;;;1.83;1.33;;;;;;;25.38;41.63;100385.97;5014860;28;20396;-74
2022/08/01 00:33:08;;;;;;;1.40;1.30;;;;;;;25.32;41.93;100389.31;5014785;28;20408;-73
2022/08/01 00:35:34;;;;;;;2.20;1.40;;;;;;;25.27;41.97;100385.59;5014720;28;20393;-73
2022/08/01 00:37:59;;;;;;;1.17;1.17;;;;;;;25.28;42.06;100390.00;5014723;28;20396;-73
2022/08/01 00:40:24;;;;;;;2.23;1.33;;;;;;;25.24;42.13;100385.47;5014696;28;20423;-73
2022/08/01 00:42:50;;;;;;;1.30;1.20;;;;;;;25.12;42.25;100380.75;5010632;28;20827;-73
2022/08/01 00:45:18;;;;;;;1.60;1.50;;;;;;;25.07;42.61;100380.13;5000869;28;20960;-73
2022/08/01 00:47:43;;;;;;;2.15;1.50;;;;;;;25.01;42.69;100382.31;5013447;28;20396;-73
2022/08/01 00:50:09;;;;;;;2.20;1.27;;;;;;;25.07;42.47;100383.72;5014272;28;20403;-73
2022/08/01 00:52:35;;;;;;;1.50;1.40;;;;;;;25.13;42.59;100385.09;5014068;28;20397;-73
2022/08/01 00:55:00;;;;;;;1.63;1.27;;;;;;;25.12;42.52;100383.50;5014580;28;20479;-73
2022/08/01 00:57:26;;;;;;;1.52;1.33;;;;;;;25.11;42.50;100383.84;5014259;28;20792;-73
2022/08/01 00:59:52;;;;;;;1.77;1.67;;;;;;;25.17;42.52;100385.22;5029529;28;20401;-73
2022/08/01 01:02:18;;;;;;;2.13;1.42;;;;;;;25.18;42.59;100379.34;5014130;28;20459;-73
2022/08/01 01:04:44;;;;;;;1.42;1.42;;;;;;;25.13;42.66;100387.88;5014413;28;20488;-73
2022/08/01 01:07:18;;;;;;;4.95;1.67;;;;;;;25.14;42.60;100394.25;5012876;28;20484;-73
2022/08/01 01:10:00;;;;;;;1.15;1.15;;;;;;;25.12;42.67;100385.47;5013206;28;20401;-73
2022/08/01 01:12:41;;;;;;;1.60;1.50;;;;;;;25.07;42.74;100391.22;5013867;28;20475;-73
2022/08/01 01:15:26;;;;;;;1.65;1.48;;;;;;;24.99;43.09;100397.69;5014014;28;20396;-73
2022/08/01 01:17:57;;;;;;;1.70;1.52;;;;;;;24.81;43.44;100391.47;5012726;28;20944;-73
2022/08/01 01:20:29;;;;;;;1.52;1.45;;;;;;;24.72;43.71;100394.34;5014055;28;20397;-73
2022/08/01 01:23:10;;;;;;;1.60;1.50;;;;;;;24.76;43.71;100397.22;5013722;28;20896;-73
2022/08/01 01:25:55;;;;;;;1.42;1.40;;;;;;;24.74;43.88;100385.66;5013688;28;20788;-73
2022/08/01 01:28:26;;;;;;;1.30;1.20;;;;;;;24.70;44.02;100390.25;5011906;28;20645;-73
2022/08/01 01:30:55;;;;;;;1.50;1.40;;;;;;;24.69;44.19;100392.25;4998572;28;20402;-73
2022/08/01 01:33:23;;;;;;;2.20;2.00;;;;;;;24.67;44.08;100389.00;5004092;28;20397;-73
2022/08/01 01:35:56;;;;;;;1.57;1.53;;;;;;;24.63;44.28;100395.56;5013388;28;20479;-73
2022/08/01 01:38:26;;;;;;;2.00;1.40;;;;;;;24.63;44.27;100399.13;5028769;28;20752;-73
2022/08/01 01:40:53;;;;;;;1.85;1.58;;;;;;;24.64;44.41;100386.09;5013556;28;20432;-73
2022/08/01 01:43:20;;;;;;;1.55;1.50;;;;;;;24.69;44.58;100397.78;5013566;28;20389;-73
2022/08/01 01:45:47;;;;;;;1.70;1.50;;;;;;;24.75;44.48;100390.88;5013636;28;20475;-73
2022/08/01 01:48:19;;;;;;;1.50;1.40;;;;;;;24.76;44.04;100392.47;5013543;28;20722;-73
2022/08/01 01:50:47;;;;;;;2.10;1.40;;;;;;;24.69;44.16;100396.97;5013276;28;20400;-73
2022/08/01 01:53:17;;;;;;;1.80;1.70;;;;;;;24.52;44.96;100399.91;5028509;28;20604;-73
2022/08/01 01:55:46;;;;;;;1.30;1.30;;;;;;;24.38;45.20;100399.34;5012123;28;20397;-73
2022/08/01 01:58:14;;;;;;;1.83;1.38;;;;;;;24.42;45.12;100405.84;5012710;28;20404;-73
2022/08/01 02:00:42;;;;;;;3.60;1.90;;;;;;;24.43;45.30;100399.97;5013139;28;20396;-73
2022/08/01 02:03:09;;;;;;;1.95;1.50;;;;;;;24.43;45.31;100401.94;5011791;28;20432;-73
2022/08/01 02:05:37;;;;;;;2.20;1.55;;;;;;;24.31;45.65;100397.13;5013067;28;20393;-73
2022/08/01 02:08:04;;;;;;;2.60;1.00;;;;;;;24.31;45.77;100410.97;5012997;28;20396;-73
2022/08/01 02:10:31;;;;;;;1.98;1.88;;;;;;;24.31;45.85;100410.16;5012944;28;20404;-73
2022/08/01 02:12:59;;;;;;;2.30;1.50;;;;;;;24.32;45.97;100414.56;5004641;28;20417;-73
2022/08/01 02:15:26;;;;;;;1.75;1.67;;;;;;;24.32;45.63;100401.53;5012887;28;20392;-73
2022/08/01 02:17:54;;;;;;;1.58;1.50;;;;;;;24.33;45.59;100400.38;5011607;28;20914;-73
2022/08/01 02:20:20;;;;;;;2.40;2.20;;;;;;;24.34;46.06;100401.16;5012828;28;20800;-73
2022/08/01 02:22:57;;;;;;;1.52;1.40;;;;;;;24.28;45.82;100406.09;5012732;28;20413;-73
2022/08/01 02:25:26;;;;;;;1.60;1.50;;;;;;;24.28;46.08;100406.09;5012869;28;20801;-73
2022/08/01 02:28:04;;;;;;;1.75;1.65;;;;;;;24.23;46.43;100407.13;5012250;28;20409;-73
2022/08/01 02:30:35;;;;;;;2.22;1.60;;;;;;;24.20;46.58;100412.53;5012768;28;20400;-73
2022/08/01 02:33:21;;;;;;;1.77;1.65;;;;;;;24.18;46.67;100406.50;5012580;28;20388;-73
2022/08/01 02:35:51;;;;;;;2.05;1.90;;;;;;;24.14;46.47;100411.91;5011811;28;20928;-73
2022/08/01 02:38:18;;;;;;;1.83;1.65;;;;;;;24.14;46.67;100403.59;5012408;28;20860;-73
2022/08/01 02:40:46;;;;;;;1.90;1.80;;;;;;;24.11;46.76;100404.25;5012311;28;20392;-73
2022/08/01 02:43:12;;;;;;;2.00;1.90;;;;;;;23.98;47.13;100399.78;5012393;28;20407;-73
2022/08/01 02:45:45;;;;;;;1.98;1.88;;;;;;;23.92;47.46;100400.31;5012350;28;20443;-72
2022/08/01 02:48:12;;;;;;;1.52;1.42;;;;;;;23.86;47.87;100408.00;5012322;28;20530;-73
2022/08/01 02:50:39;;;;;;;2.65;1.63;;;;;;;23.83;47.87;100405.09;5012333;28;20799;-72
2022/08/01 02:53:06;;;;;;;2.28;1.77;;;;;;;23.77;48.13;100402.53;5012112;28;20884;-73
2022/08/01 02:55:32;;;;;;;6.10;2.47;;;;;;;23.73;48.29;100403.50;5012177;28;20392;-73
2022/08/01 02:58:00;;;;;;;1.80;1.70;;;;;;;23.65;48.30;100416.25;5010432;28;20768;-73
2022/08/01 03:00:27;;;;;;;1.60;1.50;;;;;;;23.56;48.78;100398.06;5025471;28;20484;-73
2022/08/01 03:02:54;;;;;;;1.58;1.40;;;;;;;23.55;48.90;100402.78;5006525;28;20538;-73
2022/08/01 03:05:21;;;;;;;1.90;1.80;;;;;;;23.55;48.60;100408.31;5027237;28;20419;-73
2022/08/01 03:07:47;;;;;;;2.07;1.87;;;;;;;23.53;48.92;100405.09;5011980;28;20388;-73
2022/08/01 03:10:14;;;;;;;1.55;1.48;;;;;;;23.54;48.67;100405.91;5012111;28;20392;-72
2022/08/01 03:12:40;;;;;;;2.25;2.05;;;;;;;23.55;48.58;100391.72;5011713;28;20445;-73
2022/08/01 03:15:07;;;;;;;1.75;1.65;;;;;;;23.56;48.82;100400.81;5027080;28;20432;-73
2022/08/01 03:17:36;;;;;;;3.00;1.88;;;;;;;23.54;49.02;100397.59;5011772;28;20419;-73
2022/08/01 03:20:03;;;;;;;1.63;1.52;;;;;;;23.44;49.27;100393.25;5011911;28;20517;-73
2022/08/01 03:22:30;;;;;;;1.70;1.60;;;;;;;23.49;49.21;100387.53;5011596;28;20535;-73
2022/08/01 03:24:57;;;;;;;4.05;1.73;;;;;;;23.55;49.24;100396.44;5026861;28;20392;-72
2022/08/01 03:27:24;;;;;;;2.70;1.60;;;;;;;23.61;48.92;100403.44;5011206;28;20396;-73
2022/08/01 03:29:51;;;;;;;1.95;1.77;;;;;;;23.64;48.86;100403.56;5010587;28;20745;-73
2022/08/01 03:32:19;;;;;;;2.10;1.70;;;;;;;23.69;48.61;100400.59;5011686;28;20385;-73
2022/08/01 03:34:45;;;;;;;1.65;1.60;;;;;;;23.69;48.78;100400.59;5011214;28;20725;-73
2022/08/01 03:37:26;;;;;;;2.10;2.00;;;;;;;23.62;48.77;100414.13;4993999;28;20432;-73
2022/08/01 03:40:00;;;;;;;1.90;1.80;;;;;;;23.55;49.00;100413.03;5011640;28;20824;-73
2022/08/01 03:42:34;;;;;;;2.00;1.90;;;;;;;23.49;49.36;100408.84;5026645;28;20462;-73
2022/08/01 03:45:06;;;;;;;2.45;2.00;;;;;;;23.45;49.47;100407.88;4996847;28;20385;-72
2022/08/01 03:47:34;;;;;;;1.80;1.70;;;;;;;23.37;49.70;100411.47;5011529;28;20389;-73
2022/08/01 03:50:02;;;;;;;1.52;1.45;;;;;;;23.32;49.84;100403.31;5011123;28;20900;-73
2022/08/01 03:52:29;;;;;;;1.63;1.63;;;;;;;23.28;50.23;100406.75;5014427;28;20519;-73
2022/08/01 03:54:56;;;;;;;1.77;1.60;;;;;;;23.25;50.09;100403.84;5015446;28;20391;-73
2022/08/01 03:57:23;;;;;;;1.67;1.53;;;;;;;23.25;50.17;100406.59;5015477;28;20389;-73
2022/08/01 03:59:50;;;;;;;1.95;1.85;;;;;;;23.20;50.33;100401.28;5015516;28;20400;-73
2022/08/01 04:02:16;;;;;;;1.60;1.50;;;;;;;23.24;50.39;100410.53;5015281;28;20767;-73
2022/08/01 04:04:42;;;;;;;2.90;1.80;;;;;;;23.28;50.12;100401.22;5015363;28;20922;-73
2022/08/01 04:07:28;;;;;;;3.95;2.00;;;;;;;23.19;50.39;100403.22;5015234;28;20425;-73
2022/08/01 04:09:53;;;;;;;1.70;1.70;;;;;;;23.17;50.41;100394.44;5028060;28;20410;-73
2022/08/01 04:12:19;;;;;;;1.88;1.77;;;;;;;23.29;50.37;100402.03;5014441;28;20396;-73
2022/08/01 04:14:45;;;;;;;5.20;1.93;;;;;;;23.25;50.35;100403.84;5015158;28;20397;-73
2022/08/01 04:17:10;;;;;;;2.28;1.67;;;;;;;23.26;50.48;100402.72;5015047;28;20404;-73
2022/08/01 04:19:35;;;;;;;2.00;1.80;;;;;;;23.23;50.35;100406.94;5015103;28;20401;-73
2022/08/01 04:22:02;;;;;;;1.50;1.50;;;;;;;23.17;50.53;100404.69;5013513;28;20491;-73
2022/08/01 04:24:29;;;;;;;2.10;2.00;;;;;;;23.24;50.57;100413.28;5014957;28;20397;-72
2022/08/01 04:26:58;;;;;;;2.03;1.90;;;;;;;23.24;50.38;100413.28;5022523;28;20765;-73
2022/08/01 04:29:24;;;;;;;2.92;1.88;;;;;;;23.26;50.49;100411.00;5007540;28;20740;-73
2022/08/01 04:31:52;;;;;;;1.83;1.63;;;;;;;23.25;50.45;100415.72;5014736;28;20733;-73
2022/08/01 04:34:22;;;;;;;3.33;1.85;;;;;;;23.25;50.58;100415.72;5014123;28;20447;-73
2022/08/01 04:36:49;;;;;;;2.75;1.92;;;;;;;23.22;50.60;100421.91;5012142;28;20459;-73
2022/08/01 04:39:17;;;;;;;2.90;1.80;;;;;;;23.26;50.55;100419.28;5024495;28;20502;-74
2022/08/01 04:41:46;;;;;;;1.65;1.55;;;;;;;23.22;50.90;100412.78;5011838;28;20514;-74
2022/08/01 04:44:12;;;;;;;2.03;1.92;;;;;;;23.17;50.77;100415.75;5018942;28;20412;-74
2022/08/01 04:46:39;;;;;;;2.13;1.92;;;;;;;23.21;50.90;100425.03;5007475;28;20760;-74
2022/08/01 04:49:11;;;;;;;2.33;2.13;;;;;;;23.25;50.96;100431.50;5013445;28;20404;-74
2022/08/01 04:51:48;;;;;;;2.78;2.10;;;;;;;23.19;51.15;100419.00;5012986;28;20405;-75
2022/08/01 04:54:14;;;;;;;4.73;1.63;;;;;;;23.14;51.35;100425.53;5012626;28;20393;-74
2022/08/01 04:56:39;;;;;;;2.47;2.00;;;;;;;23.15;51.18;100427.13;5014316;28;20381;-74
2022/08/01 05:01:50;;;;;;;1.77;1.67;;;;;;;23.19;51.33;100417.03;5016316;28;20655;-74
2022/08/01 05:04:15;;;;;;;2.10;1.90;;;;;;;23.21;50.99;100419.50;5013381;28;20392;-74
2022/08/01 05:06:40;;;;;;;2.37;2.10;;;;;;;23.36;50.65;100420.88;5013712;28;20411;-74
2022/08/01 05:09:06;;;;;;;2.10;1.87;;;;;;;23.41;50.73;100424.34;5011944;28;20843;-75
2022/08/01 05:11:31;;;;;;;1.90;1.90;;;;;;;23.41;50.64;100424.34;5010880;28;20410;-74
2022/08/01 05:13:56;;;;;;;2.90;2.20;;;;;;;23.40;50.93;100416.31;5011904;28;20408;-74
2022/08/01 05:16:21;;;;;;;2.33;2.23;;;;;;;23.41;51.12;100426.28;5012034;28;20835;-74
2022/08/01 05:18:47;;;;;;;3.77;2.23;;;;;;;23.47;51.34;100417.47;5013333;28;20393;-74
2022/08/01 05:21:12;;;;;;;2.70;1.80;;;;;;;23.48;51.44;100427.38;5002962;28;20412;-74
2022/08/01 05:23:37;;;;;;;2.35;2.15;;;;;;;23.49;51.51;100431.78;5012716;28;20436;-74
2022/08/01 05:26:04;;;;;;;3.30;1.67;;;;;;;23.46;51.61;100426.09;5012732;28;20412;-74
2022/08/01 05:28:30;;;;;;;1.70;1.60;;;;;;;23.38;52.18;100436.00;5009510;28;20405;-74
2022/08/01 05:30:55;;;;;;;2.60;1.77;;;;;;;23.33;52.59;100433.44;5012177;28;20447;-75
2022/08/01 05:33:21;;;;;;;2.53;1.85;;;;;;;23.34;52.57;100437.81;5012115;28;20405;-74
2022/08/01 05:35:46;;;;;;;1.92;1.83;;;;;;;23.35;52.74;100430.34;5009360;28;20412;-74
2022/08/01 05:38:12;;;;;;;1.95;1.88;;;;;;;23.38;52.59;100430.47;5012023;28;20440;-74
2022/08/01 05:40:37;;;;;;;2.00;1.90;;;;;;;23.39;52.92;100434.88;5009958;28;20413;-75
2022/08/01 05:43:03;;;;;;;2.17;1.97;;;;;;;23.46;52.66;100442.69;5008244;28;20512;-74
2022/08/01 05:45:28;;;;;;;2.53;1.83;;;;;;;23.61;52.58;100434.63;5003722;28;20413;-74
2022/08/01 05:47:53;;;;;;;2.67;1.73;;;;;;;23.79;52.12;100435.38;5011297;28;20408;-74
2022/08/01 05:50:18;;;;;;;2.70;1.63;;;;;;;23.89;51.99;100434.19;5011567;28;20413;-74
2022/08/01 05:52:44;;;;;;;3.10;1.70;;;;;;;23.99;51.71;100433.81;5011724;28;20443;-72
2022/08/01 05:55:09;;;;;;;1.83;1.67;;;;;;;24.01;51.73;100440.63;5010652;28;20413;-71
2022/08/01 05:57:34;;;;;;;1.73;1.63;;;;;;;23.98;51.72;100432.19;5011514;28;20415;-71
2022/08/01 05:59:59;;;;;;;1.60;1.50;;;;;;;23.81;52.39;100433.09;5010086;28;20420;-72
2022/08/01 06:02:25;;;;;;;2.50;1.60;;;;;;;23.74;52.81;100441.13;5011990;28;20420;-72
2022/08/01 06:04:50;;;;;;;1.90;1.80;;;;;;;23.82;52.51;100431.13;5010204;28;20413;-72
2022/08/01 06:07:15;;;;;;;1.77;1.67;;;;;;;23.95;51.95;100430.91;5013101;28;20393;-72
2022/08/01 06:09:41;;;;;;;1.70;1.60;;;;;;;23.94;52.27;100434.78;5012753;28;20400;-71
2022/08/01 06:12:06;;;;;;;4.33;1.77;;;;;;;23.88;52.64;100444.44;5014632;28;20503;-72
2022/08/01 06:14:31;;;;;;;2.00;1.70;;;;;;;23.92;52.49;100431.56;5006032;28;20417;-72
2022/08/01 06:16:59;;;;;;;1.80;1.70;;;;;;;23.96;52.68;100435.28;5011399;28;20404;-72
2022/08/01 06:19:26;;;;;;;2.00;1.90;;;;;;;23.99;52.83;100431.03;5005024;28;20413;-72
2022/08/01 06:21:51;;;;;;;2.05;1.63;;;;;;;24.11;52.29;100436.66;5009519;28;20421;-72
2022/08/01 06:24:16;;;;;;;6.17;3.47;;;;;;;24.12;52.76;100441.09;5012773;28;20392;-73
2022/08/01 06:26:42;;;;;;;5.87;4.80;;;;;;;24.23;52.43;100450.63;5011473;28;20409;-72
2022/08/01 06:29:07;;;;;;;9.20;7.77;;;;;;;24.36;52.08;100444.03;5009610;28;20408;-72
2022/08/01 06:31:32;;;;;;;6.00;5.50;;;;;;;24.37;52.08;100444.84;5012789;28;20516;-73
2022/08/01 06:33:58;;;;;;;3.72;3.42;;;;;;;24.45;52.06;100449.50;5011192;28;20397;-73
2022/08/01 06:36:23;;;;;;;3.90;2.63;;;;;;;24.44;52.51;100436.78;5012292;28;20930;-73
2022/08/01 06:38:48;;;;;;;2.15;2.05;;;;;;;24.50;51.81;100441.78;5007967;28;20548;-73
2022/08/01 06:41:14;;;;;;;1.90;1.80;;;;;;;24.56;51.79;100445.19;4996904;28;20925;-74
2022/08/01 06:43:39;;;;;;;1.90;1.80;;;;;;;24.47;52.24;100449.97;5009860;28;20426;-72
2022/08/01 06:46:04;;;;;;;1.60;1.50;;;;;;;24.48;51.88;100443.28;5008794;28;20408;-72
2022/08/01 06:48:29;;;;;;;1.70;1.70;;;;;;;24.43;52.29;100454.56;5010732;28;20401;-71
2022/08/01 06:51:07;;;;;;;2.13;2.03;;;;;;;24.44;52.27;100456.97;5006417;28;20433;-71
2022/08/01 06:53:34;;;;;;;2.10;1.60;;;;;;;24.63;51.67;100460.09;5010341;28;20424;-71
2022/08/01 06:55:59;;;;;;;2.22;2.00;;;;;;;24.70;51.59;100459.53;5008057;28;20478;-74
2022/08/01 06:58:24;;;;;;;1.70;1.60;;;;;;;24.64;52.00;100463.66;5011816;28;20404;-72
2022/08/01 07:00:50;;;;;;;1.90;1.80;;;;;;;24.59;52.17;100461.13;5005900;28;20782;-74
2022/08/01 07:03:15;;;;;;;1.63;1.52;;;;;;;24.67;51.91;100468.53;5008284;28;20484;-74
2022/08/01 07:05:41;;;;;;;4.10;1.50;;;;;;;24.76;51.68;100461.75;5012209;28;21028;-74
2022/08/01 07:08:06;;;;;;;2.47;1.80;;;;;;;24.88;51.16;100466.59;5003105;28;20422;-73
2022/08/01 07:10:31;;;;;;;2.53;2.30;;;;;;;24.96;51.31;100468.47;5006184;28;20411;-73
2022/08/01 07:12:56;;;;;;;2.30;1.50;;;;;;;25.02;51.28;100467.13;5005249;28;20463;-73
2022/08/01 07:15:26;;;;;;;1.20;1.20;;;;;;;25.10;50.75;100462.63;5006161;28;20463;-73
2022/08/01 07:17:51;;;;;;;2.40;1.50;;;;;;;25.22;50.54;100471.00;5003521;28;20415;-73
2022/08/01 07:20:17;;;;;;;3.23;2.10;;;;;;;25.21;50.90;100458.28;5006638;28;21157;-72
2022/08/01 07:22:43;;;;;;;2.10;1.50;;;;;;;25.23;51.18;100464.28;4999562;28;20427;-73
2022/08/01 07:25:09;;;;;;;1.97;1.30;;;;;;;25.35;51.07;100467.09;5002330;28;20412;-73
2022/08/01 07:27:35;;;;;;;2.20;1.50;;;;;;;25.44;50.71;100464.22;5011296;28;20413;-73
2022/08/01 07:30:00;;;;;;;1.58;1.48;;;;;;;25.52;50.46;100457.81;5011751;28;20770;-73
2022/08/01 07:32:26;;;;;;;1.53;1.47;;;;;;;25.51;50.35;100457.00;5014545;28;20417;-73
2022/08/01 07:34:52;;;;;;;1.60;1.50;;;;;;;25.53;50.60;100456.63;5006645;28;21002;-73
2022/08/01 07:37:17;;;;;;;2.85;1.40;;;;;;;25.59;50.57;100450.50;5022104;28;20456;-73
2022/08/01 07:39:42;;;;;;;1.40;1.40;;;;;;;25.59;50.43;100452.47;5017229;28;20420;-74
2022/08/01 07:42:08;;;;;;;1.80;1.13;;;;;;;25.56;50.35;100442.06;5003697;28;20447;-73
2022/08/01 07:44:33;;;;;;;3.73;1.40;;;;;;;25.56;50.52;100450.38;5008896;28;20447;-73
2022/08/01 07:46:59;;;;;;;1.65;1.48;;;;;;;25.57;50.20;100458.38;5003382;28;20427;-73
2022/08/01 07:49:24;;;;;;;1.05;1.05;;;;;;;25.58;50.38;100454.47;5009739;28;20547;-74
2022/08/01 07:51:49;;;;;;;1.67;1.27;;;;;;;25.59;50.71;100453.28;5012028;28;21066;-74
2022/08/01 07:54:15;;;;;;;5.13;1.70;;;;;;;25.60;50.66;100449.38;5007030;28;20414;-74
2022/08/01 07:56:40;;;;;;;1.60;1.30;;;;;;;25.63;50.43;100457.00;5020339;28;20850;-74
2022/08/01 07:59:05;;;;;;;2.60;1.27;;;;;;;25.78;50.37;100447.19;5017319;28;20474;-75
2022/08/01 08:01:31;;;;;;;1.17;1.17;;;;;;;25.94;49.67;100448.13;5016948;28;20442;-74
2022/08/01 08:03:56;;;;;;;3.80;1.00;;;;;;;26.02;49.25;100449.13;5014469;28;20419;-74
2022/08/01 08:06:21;;;;;;;1.13;0.80;;;;;;;25.95;49.27;100446.94;5015012;28;20412;-74
2022/08/01 08:08:47;;;;;;;1.80;1.13;;;;;;;26.04;48.67;100442.09;5018543;28;20780;-78
2022/08/01 08:11:12;;;;;;;0.82;0.80;;;;;;;26.06;48.71;100438.94;5018409;28;20416;-74
2022/08/01 08:13:37;;;;;;;0.85;0.77;;;;;;;26.06;48.82;100439.75;5020660;28;20824;-73
2022/08/01 08:16:03;;;;;;;1.20;0.80;;;;;;;26.19;48.59;100446.13;5007692;28;20500;-73
2022/08/01 08:18:28;;;;;;;1.13;0.60;;;;;;;26.30;48.21;100442.56;5015115;28;20437;-74
2022/08/01 08:20:53;;;;;;;1.13;1.10;;;;;;;26.48;47.88;100451.41;5011000;28;20412;-73
2022/08/01 08:26:02;;;;;;;1.00;1.00;;;;;;;26.71;47.38;100440.56;5018841;28;20463;-73
2022/08/01 08:28:28;;;;;;;11.67;1.70;;;;;;;26.76;47.35;100437.53;5003113;28;20405;-74
2022/08/01 08:30:54;;;;;;;0.87;0.87;;;;;;;26.81;47.18;100434.53;5017745;28;20844;-73
2022/08/01 08:33:20;;;;;;;2.35;0.80;;;;;;;26.78;47.28;100440.75;5019192;28;20473;-73
2022/08/01 08:35:45;;;;;;;2.53;1.23;;;;;;;26.91;46.83;100434.03;5015386;28;20929;-72
2022/08/01 08:38:10;;;;;;;1.30;1.20;;;;;;;27.06;46.73;100438.00;5031141;28;20501;-73
2022/08/01 08:40:36;;;;;;;0.77;0.77;;;;;;;27.21;46.36;100435.25;5011746;28;20416;-73
2022/08/01 08:43:04;;;;;;;0.90;0.90;;;;;;;27.23;46.46;100437.69;5006402;28;20957;-72
2022/08/01 08:45:30;;;;;;;1.65;0.80;;;;;;;27.28;46.42;100429.88;5013062;28;20461;-72
2022/08/01 08:47:56;;;;;;;2.30;0.90;;;;;;;27.37;46.12;100429.69;5009836;28;20950;-72
2022/08/01 08:50:23;;;;;;;1.30;0.90;;;;;;;27.47;45.86;100429.19;5013120;28;20476;-72
2022/08/01 08:52:50;;;;;;;1.00;1.00;;;;;;;27.49;45.80;100435.25;5006863;28;20493;-73
2022/08/01 08:55:16;;;;;;;0.80;0.80;;;;;;;27.53;45.81;100426.97;5012468;28;20393;-73
2022/08/01 08:57:44;;;;;;;1.20;1.05;;;;;;;27.61;45.52;100425.97;5014073;28;20429;-73
2022/08/01 09:00:11;;;;;;;0.90;0.82;;;;;;;27.70;45.46;100421.84;5014924;28;20492;-72
2022/08/01 09:02:43;;;;;;;0.98;0.95;;;;;;;27.68;45.05;100428.94;5018379;28;20461;-73
2022/08/01 09:05:09;;;;;;;2.00;0.80;;;;;;;27.86;44.65;100427.38;5012106;28;20880;-72
2022/08/01 09:07:34;;;;;;;0.80;0.80;;;;;;;27.99;44.62;100431.66;5011320;28;20500;-73
2022/08/01 09:10:00;;;;;;;0.77;0.70;;;;;;;28.03;44.47;100427.00;5010605;28;20941;-72
2022/08/01 09:12:25;;;;;;;0.90;0.77;;;;;;;27.78;45.01;100434.78;5010270;28;20423;-72
2022/08/01 09:14:53;;;;;;;0.80;0.70;;;;;;;27.81;44.86;100431.25;5007412;28;20408;-72
2022/08/01 09:17:19;;;;;;;0.70;0.70;;;;;;;27.87;44.62;100437.34;5037553;28;20401;-73
2022/08/01 09:19:55;;;;;;;1.02;0.80;;;;;;;28.08;44.08;100439.88;5020518;28;20773;-74
2022/08/01 09:22:23;;;;;;;1.20;0.70;;;;;;;28.26;43.42;100424.34;5013624;28;20505;-72
2022/08/01 09:25:06;;;;;;;1.83;0.73;;;;;;;28.40;43.32;100424.69;5017171;28;20413;-73
2022/08/01 09:27:33;;;;;;;1.48;0.73;;;;;;;28.45;43.37;100423.59;5012796;28;20441;-73
2022/08/01 09:30:13;;;;;;;1.85;0.85;;;;;;;28.60;42.63;100436.66;5021859;28;20440;-73
2022/08/01 09:32:57;;;;;;;1.00;1.00;;;;;;;28.65;42.88;100437.16;5029813;28;20421;-73
2022/08/01 09:35:34;;;;;;;1.40;0.80;;;;;;;28.65;42.74;100436.38;5017018;28;20407;-72
2022/08/01 09:38:23;;;;;;;7.15;1.40;;;;;;;28.85;42.16;100430.44;5013391;28;20416;-73
2022/08/01 09:40:57;;;;;;;1.20;1.10;;;;;;;29.04;41.69;100440.78;4993666;28;20424;-73
2022/08/01 09:43:24;;;;;;;1.42;1.00;;;;;;;29.28;41.49;100432.09;5012156;28;20869;-74
2022/08/01 09:45:50;;;;;;;1.58;0.55;;;;;;;29.50;41.17;100433.28;5011058;28;20910;-73
2022/08/01 09:48:16;;;;;;;1.05;0.90;;;;;;;29.37;40.99;100437.44;5013606;28;20389;-73
2022/08/01 09:50:45;;;;;;;2.60;0.90;;;;;;;29.28;41.05;100442.44;5007706;28;20506;-72
2022/08/01 09:53:11;;;;;;;5.53;0.80;;;;;;;29.11;41.25;100435.31;5013503;28;20411;-74
2022/08/01 09:55:40;;;;;;;0.60;0.60;;;;;;;28.75;41.88;100430.22;5013405;28;20393;-74
2022/08/01 09:58:06;;;;;;;2.20;0.80;;;;;;;28.53;42.42;100436.50;5011025;28;20427;-73
2022/08/01 10:00:34;;;;;;;2.05;0.75;;;;;;;28.32;42.81;100439.66;5002326;28;20442;-73
2022/08/01 10:03:18;;;;;;;2.70;0.95;;;;;;;28.35;42.59;100427.78;5005500;28;20431;-74
2022/08/01 10:05:44;;;;;;;1.05;0.80;;;;;;;28.48;42.41;100434.81;5015537;28;20411;-72
2022/08/01 10:08:10;;;;;;;0.95;0.95;;;;;;;28.43;42.92;100428.72;5012701;28;20393;-74
2022/08/01 10:10:35;;;;;;;0.80;0.80;;;;;;;28.92;42.21;100434.53;5008574;28;20425;-73
2022/08/01 10:13:02;;;;;;;2.00;0.98;;;;;;;29.21;41.24;100425.56;5022251;28;20415;-73
2022/08/01 10:15:27;;;;;;;1.20;0.77;;;;;;;29.13;41.68;100432.16;5005058;28;20409;-74
2022/08/01 10:17:54;;;;;;;2.78;1.10;;;;;;;29.12;41.56;100428.56;5009674;28;20416;-74
2022/08/01 10:20:23;;;;;;;1.23;1.20;;;;;;;29.44;41.53;100426.38;5009681;28;20401;-73
2022/08/01 10:22:51;;;;;;;0.85;0.80;;;;;;;31.52;37.15;100411.66;5000796;28;20459;-74
2022/08/01 10:25:19;;;;;;;1.98;1.23;;;;;;;31.04;37.86;100413.56;5008214;28;20449;-73
2022/08/01 10:27:49;;;;;;;1.03;0.93;;;;;;;30.15;39.17;100410.78;5017010;28;20912;-74
2022/08/01 10:30:14;;;;;;;2.13;1.00;;;;;;;29.61;40.29;100402.72;5020517;28;20453;-74
2022/08/01 10:32:42;;;;;;;1.00;1.00;;;;;;;29.28;40.98;100409.75;5019010;28;20442;-73
2022/08/01 10:35:08;;;;;;;0.77;0.77;;;;;;;29.11;41.22;100409.41;5005573;28;20435;-73
2022/08/01 10:37:35;;;;;;;0.80;0.80;;;;;;;29.21;41.42;100411.59;5011552;28;20409;-73
2022/08/01 10:40:01;;;;;;;1.42;0.80;;;;;;;29.90;39.99;100401.25;5026661;28;20440;-73
2022/08/01 10:42:27;;;;;;;2.83;1.05;;;;;;;30.77;38.10;100415.63;5010308;28;20409;-73
2022/08/01 10:44:56;;;;;;;1.30;1.20;;;;;;;30.23;39.10;100402.09;5018434;28;22392;-73
2022/08/01 10:47:27;;;;;;;0.90;0.90;;;;;;;31.76;36.56;100405.44;5016169;28;20817;-74
2022/08/01 10:49:55;;;;;;;0.98;0.98;;;;;;;33.80;32.88;100406.63;5010874;28;20463;-74
2022/08/01 10:52:21;;;;;;;1.00;0.90;;;;;;;35.46;30.68;100402.38;5027606;28;20412;-74
2022/08/01 10:54:46;;;;;;;2.37;1.10;;;;;;;34.90;30.72;100404.34;5017069;28;20964;-74
2022/08/01 10:57:13;;;;;;;2.67;1.30;;;;;;;35.50;30.14;100403.16;5010545;28;20416;-75
2022/08/01 10:59:51;;;;;;;0.88;0.88;;;;;;;37.00;27.55;100399.13;5011147;28;20420;-74
2022/08/01 11:02:33;;;;;;;1.45;0.68;;;;;;;37.88;26.48;100399.72;5017200;28;20416;-74
2022/08/01 11:05:02;;;;;;;1.45;0.80;;;;;;;37.30;26.64;100401.09;5023218;28;20446;-73
2022/08/01 11:07:48;;;;;;;0.85;0.85;;;;;;;36.17;28.45;100394.06;5020985;28;20432;-73
2022/08/01 11:10:24;;;;;;;2.92;1.10;;;;;;;35.32;29.49;100394.81;5040561;28;20486;-74
2022/08/01 11:12:49;;;;;;;1.40;1.02;;;;;;;34.06;30.96;100402.56;5024071;28;20414;-73
2022/08/01 11:15:16;;;;;;;0.83;0.83;;;;;;;32.97;32.93;100403.28;5013684;28;20466;-72
2022/08/01 11:17:47;;;;;;;1.10;1.10;;;;;;;33.02;32.63;100398.13;5025494;28;20406;-74
2022/08/01 11:20:41;;;;;;;0.90;0.90;;;;;;;33.19;32.28;100386.16;5025807;28;20411;-73
2022/08/01 11:23:07;;;;;;;0.90;0.90;;;;;;;34.12;31.07;100384.91;5003751;28;20764;-73
2022/08/01 11:25:35;;;;;;;3.00;1.00;;;;;;;36.73;27.54;100384.94;5008306;28;20423;-75
2022/08/01 11:28:16;;;;;;;4.43;1.20;;;;;;;38.07;25.64;100384.03;5009491;28;20401;-72
2022/08/01 11:30:51;;;;;;;0.93;0.93;;;;;;;37.30;26.22;100384.94;5017873;28;20506;-73
2022/08/01 11:33:47;;;;;;;0.82;0.80;;;;;;;36.19;27.99;100375.53;5016027;28;20412;-73